Gu Achi, AZ

6:41 AM MST on July 04, 2015 (GMT -0700)
Ryan | | Change Station
CLOSE
Current Station
Airport
Location: Tucson,
Elevation: 2418 ft
Nearby Weather Stations

Elev 2418 ft 32.14 °N, 111.17 °W | Updated 56 minutes ago

Clear
Clear
81 °F
Feels Like 80 °F
N
5
Wind Variable Wind from ESE

Today
High -- | Low -- °F
--% Chance of Precip.
Yesterday
High -- | Low -- °F
Precip. -- in
5:26 AM 7:37 PM
Waning Gibbous, 92% visible
Pressure 29.90 in
Visibility 10.0 miles
Clouds Clear
Heat Index 80 °F
Dew Point 55 °F
Humidity 42%
Rainfall 0.00 in
Snow Depth Not available.
UV 0 out of 12
Pollen 3.60 out of 12
Air Quality Not available.
Flu Activity Not available.
METAR KRYN 041245Z 11004KT 10SM CLR 27/13 A2990

More Conditions Fewer Conditions

Pressure 29.90 in
Visibility 10.0 miles
Clouds Clear
Heat Index 80 °F
Dew Point 55 °F
Humidity 42%
Rainfall 0.00 in
Snow Depth Not available.
UV 0 out of 12
Pollen 3.60 out of 12
Air Quality Not available.
Flu Activity Not available.
METAR KRYN 041245Z 11004KT 10SM CLR 27/13 A2990

More Conditions Fewer Conditions

10-Day Weather Forecast

×

Almanac

Astronomy

Jul. 04, 2015 Rise Set
Actual Time
Civil Twilight
Nautical Twilight
Astronomical Twilight
Moon
Length of Visible Light
Length of Day
Tomorrow will be .
, % of the Moon is Illuminated

Today's Extremes

State Highs State Lows

Community

WunderPhotos

Upload Photos

1,834,965 photos uploaded!

WunderBlogs® & News

Nearby

Air Quality

  Air Quality AQ Index Pollutant
Not available.

Snow Depth

Station Depth Elevation

Earthquake Activity

City Distance Mag. Time & Date
Minimum magnitude displayed is 2.5.

Coastal Water Temperatures

Place Temperature

Stations

Nearby Weather Stations

Station Location Temp. Windchill Dew Point Humidity Wind Precip. Elev Updated Type